createdAt,value
2018-11-07T00:00:33.666Z,25.67
2018-11-07T00:01:08.015Z,26.27
2018-11-07T00:01:42.368Z,25.93
2018-11-07T00:02:16.675Z,26.23
2018-11-07T00:02:51.060Z,26.90
2018-11-07T00:03:25.873Z,25.60
2018-11-07T00:04:00.246Z,26.97
2018-11-07T00:04:35.124Z,25.87
2018-11-07T00:05:09.741Z,26.37
2018-11-07T00:05:44.540Z,26.77
2018-11-07T00:06:18.889Z,25.97
2018-11-07T00:06:53.201Z,25.30
2018-11-07T00:07:27.563Z,25.40
2018-11-07T00:08:02.192Z,26.07
2018-11-07T00:08:36.681Z,25.37
2018-11-07T00:09:11.293Z,25.90
2018-11-07T00:09:45.597Z,25.70
2018-11-07T00:10:19.899Z,25.20
2018-11-07T00:10:54.228Z,25.37
2018-11-07T00:11:28.545Z,25.50
2018-11-07T00:12:02.837Z,26.30
2018-11-07T00:12:37.365Z,25.40
2018-11-07T00:13:11.887Z,25.97
2018-11-07T00:13:46.190Z,23.90
2018-11-07T00:14:20.791Z,25.07
2018-11-07T00:14:55.113Z,26.00
2018-11-07T00:15:29.525Z,25.37
2018-11-07T00:16:04.233Z,25.20
2018-11-07T00:16:38.593Z,25.17
2018-11-07T00:17:13.295Z,25.43
2018-11-07T00:17:47.594Z,26.13
2018-11-07T00:18:22.053Z,24.47
2018-11-07T00:18:56.413Z,25.13
2018-11-07T00:19:30.836Z,24.90
2018-11-07T00:20:06.696Z,25.70
2018-11-07T00:20:41.286Z,26.37
2018-11-07T00:21:15.605Z,24.57
2018-11-07T00:21:50.035Z,24.90
2018-11-07T00:22:24.345Z,26.17
2018-11-07T00:22:59.163Z,25.40
2018-11-07T00:23:33.508Z,24.20
2018-11-07T00:24:07.857Z,24.40
2018-11-07T00:24:42.412Z,25.70
2018-11-07T00:25:16.776Z,22.10
2018-11-07T00:25:51.252Z,20.83
2018-11-07T00:26:25.737Z,19.17
2018-11-07T00:27:00.276Z,19.90
2018-11-07T00:27:34.632Z,21.23
2018-11-07T00:28:08.991Z,21.73
2018-11-07T00:28:43.345Z,23.13
2018-11-07T00:29:17.669Z,22.90
2018-11-07T00:29:52.027Z,22.67
2018-11-07T00:30:26.341Z,23.00
2018-11-07T00:31:00.680Z,23.20
2018-11-07T00:31:35.089Z,22.23
2018-11-07T00:32:09.424Z,23.00
2018-11-07T00:32:43.780Z,23.07
2018-11-07T00:33:18.268Z,23.53
2018-11-07T00:33:52.810Z,22.10
2018-11-07T00:34:27.289Z,23.00
2018-11-07T00:35:01.675Z,23.77
2018-11-07T00:35:36.141Z,23.70
2018-11-07T00:36:10.506Z,22.40
2018-11-07T00:36:44.851Z,23.77
2018-11-07T00:37:19.340Z,23.70
2018-11-07T00:37:53.695Z,23.77
2018-11-07T00:38:28.045Z,22.70
2018-11-07T00:39:02.376Z,22.37
2018-11-07T00:39:36.710Z,25.17
2018-11-07T00:40:11.406Z,24.20
2018-11-07T00:40:45.802Z,24.67
2018-11-07T00:41:20.370Z,24.87
2018-11-07T00:41:54.685Z,23.77
2018-11-07T00:42:29.130Z,24.70
2018-11-07T00:43:03.583Z,24.80
2018-11-07T00:43:38.161Z,25.17
2018-11-07T00:44:12.638Z,24.80
2018-11-07T00:44:47.020Z,23.37
2018-11-07T00:45:21.484Z,26.00
2018-11-07T00:45:56.256Z,26.27
2018-11-07T00:46:32.812Z,25.00
2018-11-07T00:47:07.157Z,25.03
2018-11-07T00:47:41.780Z,25.63
2018-11-07T00:48:16.164Z,25.33
2018-11-07T00:48:50.567Z,24.77
2018-11-07T00:49:24.940Z,26.10
2018-11-07T00:49:59.475Z,25.03
2018-11-07T00:50:33.844Z,26.17
2018-11-07T00:51:08.220Z,26.13
2018-11-07T00:51:42.568Z,25.57
2018-11-07T00:52:16.963Z,24.93
2018-11-07T00:52:51.297Z,24.90
2018-11-07T00:53:25.644Z,24.00
2018-11-07T00:53:59.967Z,25.03
2018-11-07T00:54:34.354Z,24.80
2018-11-07T00:55:09.316Z,24.37
2018-11-07T00:55:43.696Z,24.77
2018-11-07T00:56:18.188Z,25.00
2018-11-07T00:56:52.556Z,25.47
2018-11-07T00:57:27.263Z,24.10
2018-11-07T00:58:01.655Z,24.60
2018-11-07T00:58:36.275Z,24.43
2018-11-07T00:59:10.682Z,25.83
2018-11-07T00:59:45.048Z,25.57
2018-11-07T01:00:20.415Z,25.47
2018-11-07T01:00:54.741Z,25.20
2018-11-07T01:01:29.091Z,25.80
2018-11-07T01:02:03.889Z,26.07
2018-11-07T01:02:38.268Z,24.10
2018-11-07T01:03:12.771Z,25.93
2018-11-07T01:03:47.201Z,24.33
2018-11-07T01:04:21.512Z,24.67
2018-11-07T01:04:55.863Z,24.37
2018-11-07T01:05:30.241Z,23.77
2018-11-07T01:06:04.737Z,24.47
2018-11-07T01:06:39.247Z,24.77
2018-11-07T01:07:13.611Z,25.67
2018-11-07T01:07:48.700Z,24.30
2018-11-07T01:08:23.144Z,23.73
2018-11-07T01:08:57.487Z,25.07
2018-11-07T01:09:31.898Z,24.20
2018-11-07T01:10:07.316Z,25.27
2018-11-07T01:10:41.710Z,23.73
2018-11-07T01:11:16.058Z,24.13
2018-11-07T01:11:50.433Z,26.53
2018-11-07T01:12:24.773Z,25.37
2018-11-07T01:12:59.176Z,25.47
2018-11-07T01:13:33.553Z,25.00
2018-11-07T01:14:08.197Z,25.10
2018-11-07T01:14:42.704Z,25.57
2018-11-07T01:15:17.077Z,24.87
2018-11-07T01:15:51.437Z,24.33
2018-11-07T01:16:25.963Z,25.73
2018-11-07T01:17:00.468Z,23.67
2018-11-07T01:17:34.871Z,25.40
2018-11-07T01:18:09.216Z,25.73
2018-11-07T01:18:43.614Z,25.87
2018-11-07T01:19:18.019Z,24.73
2018-11-07T01:19:52.396Z,25.70
2018-11-07T01:20:27.756Z,24.60
2018-11-07T01:21:02.236Z,24.50
2018-11-07T01:21:36.587Z,24.60
2018-11-07T01:22:11.077Z,24.93
2018-11-07T01:22:45.639Z,24.87
2018-11-07T01:23:20.001Z,23.73
2018-11-07T01:23:54.367Z,24.53
2018-11-07T01:24:29.258Z,23.87
2018-11-07T01:25:03.640Z,23.27
2018-11-07T01:25:38.152Z,24.53
2018-11-07T01:26:12.550Z,23.30
2018-11-07T01:26:47.001Z,23.40
2018-11-07T01:27:21.421Z,24.90
2018-11-07T01:27:55.800Z,23.20
2018-11-07T01:28:30.154Z,23.73
2018-11-07T01:29:04.519Z,24.07
2018-11-07T01:29:38.933Z,23.60
2018-11-07T01:30:14.537Z,23.57
2018-11-07T01:30:48.903Z,23.30
2018-11-07T01:31:23.249Z,23.83
2018-11-07T01:31:57.645Z,23.10
2018-11-07T01:32:31.993Z,23.00
2018-11-07T01:33:07.233Z,23.03
2018-11-07T01:33:41.760Z,23.17
2018-11-07T01:34:16.129Z,24.17
2018-11-07T01:34:50.469Z,22.43
2018-11-07T01:35:24.808Z,22.27
2018-11-07T01:35:59.163Z,22.87
2018-11-07T01:36:33.503Z,23.27
2018-11-07T01:37:08.000Z,22.60
2018-11-07T01:37:42.553Z,22.77
2018-11-07T01:38:16.972Z,23.13
2018-11-07T01:38:51.354Z,22.73
2018-11-07T01:39:25.710Z,22.27
2018-11-07T01:40:00.048Z,23.77
2018-11-07T01:40:34.533Z,22.40
2018-11-07T01:41:08.949Z,22.60
2018-11-07T01:41:43.478Z,21.63
2018-11-07T01:42:18.020Z,21.67
2018-11-07T01:42:52.357Z,24.00
2018-11-07T01:43:26.692Z,23.13
2018-11-07T01:44:01.117Z,22.73
2018-11-07T01:44:35.489Z,22.33
2018-11-07T01:45:10.744Z,22.40
2018-11-07T01:45:45.120Z,21.73
2018-11-07T01:46:19.561Z,22.63
2018-11-07T01:46:53.896Z,23.17
2018-11-07T01:47:28.223Z,22.27
2018-11-07T01:48:02.565Z,23.03
2018-11-07T01:48:36.905Z,23.73
2018-11-07T01:49:11.319Z,22.37
2018-11-07T01:49:45.743Z,22.23
2018-11-07T01:50:20.079Z,22.53
2018-11-07T01:50:54.429Z,22.30
2018-11-07T01:51:28.763Z,23.10
2018-11-07T01:52:03.094Z,22.37
2018-11-07T01:52:37.444Z,22.53
2018-11-07T01:53:11.823Z,24.37
2018-11-07T01:53:46.231Z,23.57
2018-11-07T01:54:20.620Z,22.50
2018-11-07T01:54:54.960Z,22.77
2018-11-07T01:55:29.304Z,23.73
2018-11-07T01:56:03.634Z,23.33
2018-11-07T01:56:37.993Z,22.77
2018-11-07T01:57:12.357Z,24.23
2018-11-07T01:57:46.739Z,23.10
2018-11-07T01:58:21.195Z,22.37
2018-11-07T01:58:55.540Z,23.67
2018-11-07T01:59:29.887Z,24.60
2018-11-07T02:00:05.277Z,24.27
2018-11-07T02:00:40.021Z,22.60
2018-11-07T02:01:14.499Z,24.90
2018-11-07T02:01:48.875Z,23.33
2018-11-07T02:02:23.208Z,24.60
2018-11-07T02:02:57.535Z,23.77
2018-11-07T02:03:31.931Z,24.67
2018-11-07T02:04:06.320Z,23.23
2018-11-07T02:04:40.702Z,23.47
2018-11-07T02:05:15.211Z,24.43
2018-11-07T02:05:49.548Z,24.60
2018-11-07T02:06:23.924Z,24.60
2018-11-07T02:06:58.252Z,24.10
2018-11-07T02:07:32.601Z,24.47
2018-11-07T02:08:07.306Z,24.50
2018-11-07T02:08:41.754Z,25.07
2018-11-07T02:09:16.167Z,25.00
2018-11-07T02:09:50.610Z,25.07
2018-11-07T02:10:24.952Z,24.57
2018-11-07T02:10:59.975Z,25.67
2018-11-07T02:11:34.348Z,25.43
2018-11-07T02:12:08.688Z,24.80
2018-11-07T02:12:43.066Z,24.60
2018-11-07T02:13:17.459Z,24.27
2018-11-07T02:13:51.787Z,24.87
2018-11-07T02:14:26.133Z,24.67
2018-11-07T02:15:00.464Z,23.53
2018-11-07T02:15:34.800Z,24.53
2018-11-07T02:16:09.249Z,24.63
2018-11-07T02:16:43.670Z,24.00
2018-11-07T02:17:18.041Z,24.23
2018-11-07T02:17:52.378Z,24.70
2018-11-07T02:18:26.797Z,23.50
2018-11-07T02:19:01.175Z,23.50
2018-11-07T02:19:36.724Z,24.00
2018-11-07T02:20:12.164Z,23.90
2018-11-07T02:20:46.664Z,24.03
2018-11-07T02:21:21.000Z,24.00
2018-11-07T02:21:55.353Z,24.37
2018-11-07T02:22:29.771Z,23.53
2018-11-07T02:23:04.195Z,23.83
2018-11-07T02:23:38.626Z,23.90
2018-11-07T02:24:13.131Z,24.57
2018-11-07T02:24:47.496Z,23.10
2018-11-07T02:25:22.204Z,24.47
2018-11-07T02:25:56.545Z,24.20
2018-11-07T02:26:31.054Z,22.87
2018-11-07T02:27:05.968Z,24.63
2018-11-07T02:27:40.844Z,24.63
2018-11-07T02:28:15.341Z,24.53
2018-11-07T02:28:49.726Z,24.40
2018-11-07T02:29:24.108Z,22.97
2018-11-07T02:29:58.445Z,25.13
2018-11-07T02:30:32.791Z,23.93
2018-11-07T02:31:07.121Z,24.07
2018-11-07T02:31:42.860Z,22.43
2018-11-07T02:32:17.269Z,23.33
2018-11-07T02:32:51.639Z,24.53
2018-11-07T02:33:25.989Z,23.23
2018-11-07T02:34:00.357Z,22.73
2018-11-07T02:34:34.683Z,23.83
2018-11-07T02:35:09.036Z,23.03
2018-11-07T02:35:43.597Z,23.57
2018-11-07T02:36:18.005Z,22.17
2018-11-07T02:36:52.457Z,21.80
2018-11-07T02:37:26.920Z,22.70
2018-11-07T02:38:01.256Z,23.93
2018-11-07T02:38:35.633Z,21.80
2018-11-07T02:39:13.000Z,22.90
2018-11-07T02:39:47.769Z,22.43
2018-11-07T02:40:22.107Z,20.60
2018-11-07T02:40:56.798Z,21.57
2018-11-07T02:41:31.165Z,21.90
2018-11-07T02:42:05.576Z,21.60
2018-11-07T02:42:40.002Z,20.90
2018-11-07T02:43:14.405Z,21.70
2018-11-07T02:43:48.796Z,22.40
2018-11-07T02:44:23.495Z,21.80
2018-11-07T02:44:58.013Z,21.53
2018-11-07T02:45:32.344Z,21.97
2018-11-07T02:46:07.364Z,20.13
2018-11-07T02:46:43.015Z,21.13
2018-11-07T02:47:17.382Z,21.63
2018-11-07T02:47:51.809Z,21.27
2018-11-07T02:48:26.168Z,21.60
2018-11-07T02:49:00.570Z,22.03
2018-11-07T02:49:34.891Z,21.47
2018-11-07T02:50:10.082Z,21.37
2018-11-07T02:50:44.463Z,21.23
2018-11-07T02:51:18.805Z,20.77
2018-11-07T02:51:53.154Z,20.33
2018-11-07T02:52:27.525Z,20.73
2018-11-07T02:53:01.877Z,20.67
2018-11-07T02:53:36.346Z,19.80
2018-11-07T02:54:10.953Z,19.93
2018-11-07T02:54:45.402Z,19.40
2018-11-07T02:55:19.832Z,21.13
2018-11-07T02:55:54.180Z,18.77
2018-11-07T02:56:28.580Z,19.87
2018-11-07T02:57:02.928Z,19.03
2018-11-07T02:57:37.509Z,19.27
2018-11-07T02:58:11.964Z,18.63
2018-11-07T02:58:46.505Z,18.83
2018-11-07T02:59:20.865Z,19.77
2018-11-07T02:59:55.209Z,19.20
2018-11-07T03:00:29.544Z,18.37
2018-11-07T03:01:04.028Z,20.17
2018-11-07T03:01:38.508Z,20.20
2018-11-07T03:02:12.879Z,19.03
2018-11-07T03:02:47.204Z,18.90
2018-11-07T03:03:21.604Z,18.20
2018-11-07T03:03:56.457Z,19.53
2018-11-07T03:04:30.799Z,17.60
2018-11-07T03:05:05.195Z,19.20
2018-11-07T03:05:39.585Z,20.13
2018-11-07T03:06:14.094Z,20.83
2018-11-07T03:06:48.604Z,20.27
2018-11-07T03:07:23.029Z,18.47
2018-11-07T03:07:57.376Z,18.77
2018-11-07T03:08:32.596Z,19.23
2018-11-07T03:09:09.508Z,19.90
2018-11-07T03:09:44.127Z,19.60
2018-11-07T03:10:18.530Z,19.47
2018-11-07T03:10:53.077Z,19.27
2018-11-07T03:11:27.391Z,18.20
2018-11-07T03:12:01.764Z,19.83
2018-11-07T03:12:36.104Z,18.17
2018-11-07T03:13:10.469Z,18.57
2018-11-07T03:13:44.899Z,18.83
2018-11-07T03:14:19.300Z,19.87
2018-11-07T03:14:53.608Z,18.90
2018-11-07T03:15:27.956Z,20.13
2018-11-07T03:16:02.256Z,20.00
2018-11-07T03:16:36.798Z,19.97
2018-11-07T03:17:11.187Z,19.97
2018-11-07T03:17:45.553Z,19.53
2018-11-07T03:18:19.867Z,18.80
2018-11-07T03:18:54.214Z,19.20
2018-11-07T03:19:28.544Z,18.83
2018-11-07T03:20:03.281Z,18.77
2018-11-07T03:20:37.579Z,19.87
2018-11-07T03:21:12.184Z,22.07
2018-11-07T03:21:46.540Z,23.73
2018-11-07T03:22:20.841Z,23.10
2018-11-07T03:22:55.181Z,23.13
2018-11-07T03:23:29.476Z,22.20
2018-11-07T03:24:04.150Z,21.83
2018-11-07T03:24:38.527Z,22.23
2018-11-07T03:25:12.911Z,22.37
2018-11-07T03:25:47.311Z,21.43
2018-11-07T03:26:21.663Z,21.73
2018-11-07T03:26:56.024Z,21.37
2018-11-07T03:27:30.345Z,21.07
2018-11-07T03:28:04.774Z,22.67
2018-11-07T03:28:39.325Z,21.60
2018-11-07T03:29:13.656Z,21.13
2018-11-07T03:29:48.249Z,20.57
2018-11-07T03:30:22.557Z,21.33
2018-11-07T03:30:56.867Z,20.73
2018-11-07T03:31:31.188Z,21.17
2018-11-07T03:32:05.927Z,20.70
2018-11-07T03:32:40.348Z,21.00
2018-11-07T03:33:14.743Z,20.47
2018-11-07T03:33:49.261Z,20.70
2018-11-07T03:34:23.584Z,21.27
2018-11-07T03:34:58.024Z,21.20
2018-11-07T03:35:32.382Z,19.93
2018-11-07T03:36:06.892Z,20.93
2018-11-07T03:36:41.358Z,20.07
2018-11-07T03:37:15.728Z,19.80
2018-11-07T03:37:50.184Z,20.50
2018-11-07T03:38:24.495Z,20.03
2018-11-07T03:38:58.933Z,19.47
2018-11-07T03:39:33.305Z,20.70
2018-11-07T03:40:08.237Z,19.20
2018-11-07T03:40:42.612Z,19.13
2018-11-07T03:41:16.989Z,21.43
2018-11-07T03:41:51.331Z,19.83
2018-11-07T03:42:25.653Z,19.83
2018-11-07T03:42:59.948Z,19.27
2018-11-07T03:43:34.251Z,19.47
2018-11-07T03:44:09.399Z,18.57
2018-11-07T03:44:43.761Z,18.70
2018-11-07T03:45:19.562Z,18.40
2018-11-07T03:45:57.763Z,17.93
2018-11-07T03:46:32.069Z,18.73
2018-11-07T03:47:06.598Z,18.03
2018-11-07T03:47:41.259Z,18.30
2018-11-07T03:48:15.580Z,17.23
2018-11-07T03:48:49.917Z,17.70
2018-11-07T03:49:24.203Z,19.10
2018-11-07T03:49:58.528Z,17.00
2018-11-07T03:50:32.831Z,17.80
2018-11-07T03:51:07.157Z,16.90
2018-11-07T03:51:41.483Z,18.00
2018-11-07T03:52:15.901Z,18.23
2018-11-07T03:52:50.385Z,17.70
2018-11-07T03:53:24.877Z,18.00
2018-11-07T03:53:59.194Z,18.30
2018-11-07T03:54:33.519Z,17.37
2018-11-07T03:55:08.400Z,17.97
2018-11-07T03:55:42.829Z,18.97
2018-11-07T03:56:17.173Z,18.13
2018-11-07T03:56:51.563Z,18.33
2018-11-07T03:57:25.867Z,17.67
2018-11-07T03:58:00.168Z,17.13
2018-11-07T03:58:34.562Z,19.10
2018-11-07T03:59:09.130Z,18.33
2018-11-07T03:59:43.559Z,17.97
2018-11-07T04:00:17.954Z,17.90
2018-11-07T04:00:52.393Z,17.60
2018-11-07T04:01:26.717Z,17.50
2018-11-07T04:02:01.412Z,17.73
2018-11-07T04:02:35.741Z,17.43
2018-11-07T04:03:10.132Z,16.87
2018-11-07T04:03:44.503Z,17.63
2018-11-07T04:04:18.902Z,16.87
2018-11-07T04:04:53.316Z,17.67
2018-11-07T04:05:27.652Z,17.17
2018-11-07T04:06:01.997Z,16.33
2018-11-07T04:06:36.324Z,18.17
2018-11-07T04:07:10.702Z,17.60
2018-11-07T04:07:45.105Z,17.53
2018-11-07T04:08:19.421Z,17.53
2018-11-07T04:08:53.781Z,17.60
2018-11-07T04:09:28.093Z,16.53
2018-11-07T04:10:02.444Z,16.73
2018-11-07T04:10:36.840Z,17.00
2018-11-07T04:11:11.442Z,17.90
2018-11-07T04:11:45.877Z,17.33
2018-11-07T04:12:20.260Z,16.93
2018-11-07T04:12:54.632Z,16.27
2018-11-07T04:13:28.943Z,16.43
2018-11-07T04:14:03.310Z,16.13
2018-11-07T04:14:37.625Z,16.60
2018-11-07T04:15:12.009Z,15.80
2018-11-07T04:15:46.482Z,15.37
2018-11-07T04:16:20.937Z,16.10
2018-11-07T04:16:55.339Z,15.97
2018-11-07T04:17:29.675Z,16.80
2018-11-07T04:18:04.067Z,16.03
2018-11-07T04:18:38.448Z,14.87
2018-11-07T04:19:12.884Z,15.17
2018-11-07T04:19:47.275Z,16.07
2018-11-07T04:20:21.628Z,15.40
2018-11-07T04:20:56.013Z,13.97
2018-11-07T04:21:30.372Z,15.33
2018-11-07T04:22:04.946Z,14.33
2018-11-07T04:22:39.848Z,14.70
2018-11-07T04:23:14.471Z,14.53
2018-11-07T04:24:05.654Z,15.00
2018-11-07T04:24:40.037Z,13.80
2018-11-07T04:25:14.500Z,14.33
2018-11-07T04:25:48.904Z,14.77
2018-11-07T04:26:23.239Z,14.57
2018-11-07T04:26:57.585Z,14.40
2018-11-07T04:27:32.126Z,13.50
2018-11-07T04:28:06.792Z,13.57
2018-11-07T04:28:41.166Z,14.07
2018-11-07T04:29:15.579Z,12.83
2018-11-07T04:29:50.063Z,14.20
2018-11-07T04:30:24.472Z,14.00
2018-11-07T04:30:58.884Z,13.07
2018-11-07T04:31:33.231Z,14.33
2018-11-07T04:32:07.586Z,13.70
2018-11-07T04:32:42.540Z,13.00
2018-11-07T04:33:17.264Z,13.03
2018-11-07T04:33:51.744Z,13.33
2018-11-07T04:34:26.077Z,13.67
2018-11-07T04:35:00.424Z,12.97
2018-11-07T04:35:34.780Z,14.27
2018-11-07T04:36:09.176Z,12.93
2018-11-07T04:36:43.549Z,13.13
2018-11-07T04:37:17.930Z,13.60
2018-11-07T04:37:52.260Z,13.83
2018-11-07T04:38:26.599Z,13.20
2018-11-07T04:39:00.992Z,13.90
2018-11-07T04:39:35.469Z,13.37
2018-11-07T04:40:12.659Z,13.87
2018-11-07T04:40:47.013Z,13.63
2018-11-07T04:41:21.400Z,13.90
2018-11-07T04:41:55.759Z,13.70
2018-11-07T04:42:30.115Z,14.00
2018-11-07T04:43:04.835Z,13.77
2018-11-07T04:43:39.296Z,13.53
2018-11-07T04:44:13.746Z,13.47
2018-11-07T04:44:48.104Z,13.23
2018-11-07T04:45:22.463Z,14.33
2018-11-07T04:45:56.820Z,14.00
2018-11-07T04:46:31.176Z,13.73
2018-11-07T04:47:06.674Z,12.83
2018-11-07T04:47:41.049Z,14.33
2018-11-07T04:48:15.464Z,13.40
2018-11-07T04:48:49.875Z,14.10
2018-11-07T04:49:24.226Z,14.77
2018-11-07T04:49:58.568Z,13.43
2018-11-07T04:50:32.883Z,14.20
2018-11-07T04:51:07.712Z,14.00
2018-11-07T04:51:42.313Z,13.57
2018-11-07T04:52:16.730Z,13.87
2018-11-07T04:52:51.099Z,14.07
2018-11-07T04:53:25.437Z,13.13
2018-11-07T04:53:59.840Z,14.30
2018-11-07T04:54:34.259Z,13.90
2018-11-07T04:55:08.620Z,13.63
2018-11-07T04:55:43.118Z,14.33
2018-11-07T04:56:17.527Z,13.77
2018-11-07T04:56:51.869Z,13.30
2018-11-07T04:57:26.229Z,13.73
2018-11-07T04:58:00.579Z,12.70
2018-11-07T04:58:35.356Z,13.03
2018-11-07T04:59:09.703Z,14.07
2018-11-07T04:59:44.118Z,13.13
2018-11-07T05:00:18.636Z,13.13
2018-11-07T05:00:53.137Z,13.47
2018-11-07T05:01:27.591Z,13.03
2018-11-07T05:02:01.999Z,13.23
2018-11-07T05:02:36.401Z,12.70
2018-11-07T05:03:10.846Z,12.43
2018-11-07T05:03:45.468Z,11.83
2018-11-07T05:04:19.858Z,12.43
2018-11-07T05:04:54.197Z,12.13
2018-11-07T05:05:28.526Z,12.40
2018-11-07T05:06:02.863Z,12.40
2018-11-07T05:06:37.242Z,11.83
2018-11-07T05:07:11.736Z,11.83
2018-11-07T05:07:46.571Z,12.47
2018-11-07T05:08:21.141Z,12.93
2018-11-07T05:08:55.664Z,11.80
2018-11-07T05:09:29.973Z,12.13
2018-11-07T05:10:04.648Z,11.23
2018-11-07T05:10:39.058Z,11.37
2018-11-07T05:11:13.473Z,10.90
2018-11-07T05:11:47.868Z,11.47
2018-11-07T05:12:22.216Z,11.33
2018-11-07T05:12:56.592Z,11.33
2018-11-07T05:13:30.908Z,10.73
2018-11-07T05:14:05.431Z,10.87
2018-11-07T05:14:40.097Z,10.50
2018-11-07T05:15:14.497Z,11.27
2018-11-07T05:15:48.868Z,10.17
2018-11-07T05:16:23.222Z,10.47
2018-11-07T05:16:57.596Z,10.27
2018-11-07T05:17:31.933Z,9.97
2018-11-07T05:18:06.285Z,10.50
2018-11-07T05:18:40.820Z,11.00
2018-11-07T05:19:16.085Z,10.20
2018-11-07T05:19:50.562Z,9.73
2018-11-07T05:20:25.036Z,11.10
2018-11-07T05:20:59.506Z,11.00
2018-11-07T05:21:33.838Z,11.07
2018-11-07T05:22:08.217Z,10.37
2018-11-07T05:22:42.608Z,10.03
2018-11-07T05:23:16.995Z,10.30
2018-11-07T05:23:51.295Z,11.37
2018-11-07T05:24:25.623Z,10.13
2018-11-07T05:25:00.045Z,10.40
2018-11-07T05:25:34.752Z,9.80
2018-11-07T05:26:09.207Z,10.87
2018-11-07T05:26:43.783Z,10.50
2018-11-07T05:27:18.224Z,10.70
2018-11-07T05:27:52.554Z,11.70
2018-11-07T05:28:26.891Z,10.30
2018-11-07T05:29:01.216Z,11.60
2018-11-07T05:29:35.568Z,11.37
2018-11-07T05:30:11.392Z,12.07
2018-11-07T05:30:45.816Z,11.97
2018-11-07T05:31:20.157Z,12.67
2018-11-07T05:31:54.535Z,14.40
2018-11-07T05:32:29.192Z,15.73
2018-11-07T05:33:03.542Z,15.33
2018-11-07T05:33:37.892Z,15.33
2018-11-07T05:34:12.744Z,14.37
2018-11-07T05:34:47.126Z,16.00
2018-11-07T05:35:21.478Z,16.73
2018-11-07T05:35:56.262Z,16.37
2018-11-07T05:36:30.556Z,15.43
2018-11-07T05:37:05.947Z,15.60
2018-11-07T05:37:40.451Z,15.03
2018-11-07T05:38:14.837Z,15.23
2018-11-07T05:38:49.196Z,15.67
2018-11-07T05:39:23.517Z,16.77
2018-11-07T05:39:57.814Z,16.43
2018-11-07T05:40:32.124Z,16.87
2018-11-07T05:41:06.443Z,16.47
2018-11-07T05:41:41.181Z,17.77
2018-11-07T05:42:15.768Z,16.37
2018-11-07T05:42:50.256Z,17.37
2018-11-07T05:43:24.604Z,17.00
2018-11-07T05:43:58.896Z,17.30
2018-11-07T05:44:33.236Z,16.67
2018-11-07T05:45:08.114Z,16.17
2018-11-07T05:45:42.691Z,16.20
2018-11-07T05:46:17.073Z,16.23
2018-11-07T05:46:51.411Z,17.33
2018-11-07T05:47:25.720Z,16.83
2018-11-07T05:48:00.071Z,18.40
2018-11-07T05:48:34.377Z,17.97
2018-11-07T05:49:08.762Z,17.93
2018-11-07T05:49:43.409Z,18.30
2018-11-07T05:50:17.807Z,20.00
2018-11-07T05:50:52.119Z,21.53
2018-11-07T05:51:26.468Z,21.30
2018-11-07T05:52:00.775Z,20.27
2018-11-07T05:52:35.279Z,19.27
2018-11-07T05:53:09.645Z,20.10
2018-11-07T05:53:44.172Z,19.50
2018-11-07T05:54:18.520Z,20.20
2018-11-07T05:54:52.840Z,20.00
2018-11-07T05:55:27.159Z,18.07
2018-11-07T05:56:01.497Z,18.43
2018-11-07T05:56:35.820Z,19.27
2018-11-07T05:57:10.249Z,20.03
2018-11-07T05:57:44.616Z,20.73
2018-11-07T05:58:19.171Z,21.57
2018-11-07T05:58:53.496Z,21.13
2018-11-07T05:59:28.046Z,20.20
2018-11-07T06:00:02.370Z,21.17
2018-11-07T06:00:36.783Z,21.40
2018-11-07T06:01:11.233Z,24.17
2018-11-07T06:01:45.751Z,23.63
2018-11-07T06:02:20.064Z,23.87
2018-11-07T06:02:54.404Z,23.60
2018-11-07T06:03:28.718Z,25.03
2018-11-07T06:04:03.057Z,29.57
2018-11-07T06:04:37.350Z,28.13
2018-11-07T06:05:12.537Z,27.73
2018-11-07T06:05:46.884Z,28.33
2018-11-07T06:06:21.196Z,25.60
2018-11-07T06:06:55.519Z,26.73
2018-11-07T06:07:29.852Z,29.30
2018-11-07T06:08:04.212Z,29.33
2018-11-07T06:08:38.615Z,28.43
2018-11-07T06:09:13.026Z,28.07
2018-11-07T06:09:47.389Z,29.47
2018-11-07T06:10:21.745Z,32.70
2018-11-07T06:10:56.097Z,31.67
2018-11-07T06:11:30.414Z,32.23
2018-11-07T06:12:04.815Z,30.80
2018-11-07T06:12:39.364Z,33.13
2018-11-07T06:13:13.773Z,31.77
2018-11-07T06:13:48.268Z,32.23
2018-11-07T06:14:22.740Z,30.77
2018-11-07T06:14:57.040Z,30.80
2018-11-07T06:15:31.404Z,30.37
2018-11-07T06:16:06.354Z,29.50
2018-11-07T06:16:41.064Z,28.77
2018-11-07T06:17:15.961Z,28.43
2018-11-07T06:17:50.429Z,29.27
2018-11-07T06:18:24.812Z,28.60
2018-11-07T06:18:59.271Z,27.23
2018-11-07T06:19:33.619Z,27.80
2018-11-07T06:20:09.255Z,26.40
2018-11-07T06:20:43.728Z,27.50
2018-11-07T06:21:19.960Z,29.03
2018-11-07T06:21:54.296Z,29.53
2018-11-07T06:22:28.693Z,29.03
2018-11-07T06:23:03.052Z,28.20
2018-11-07T06:23:37.694Z,29.23
2018-11-07T06:24:12.580Z,28.10
2018-11-07T06:24:47.188Z,28.43
2018-11-07T06:25:21.684Z,28.67
2018-11-07T06:25:56.027Z,29.23
2018-11-07T06:26:30.442Z,31.33
2018-11-07T06:27:05.523Z,30.70
2018-11-07T06:27:39.989Z,31.17
2018-11-07T06:28:14.438Z,31.30
2018-11-07T06:28:48.844Z,32.23
2018-11-07T06:29:23.343Z,31.07
2018-11-07T06:29:57.643Z,30.67
2018-11-07T06:30:32.000Z,32.80
2018-11-07T06:31:06.383Z,30.93
2018-11-07T06:31:40.839Z,31.33
2018-11-07T06:32:15.299Z,32.33
2018-11-07T06:32:49.664Z,32.47
2018-11-07T06:33:23.996Z,33.53
2018-11-07T06:33:58.530Z,32.60
2018-11-07T06:34:33.015Z,32.03
2018-11-07T06:35:09.247Z,33.37
2018-11-07T06:35:43.741Z,32.90
2018-11-07T06:36:18.093Z,32.30
2018-11-07T06:36:52.447Z,34.37
2018-11-07T06:37:26.809Z,34.83
2018-11-07T06:38:01.197Z,34.77
2018-11-07T06:38:35.596Z,34.43
2018-11-07T06:39:11.276Z,36.17
2018-11-07T06:39:45.688Z,33.63
2018-11-07T06:40:20.068Z,33.13
2018-11-07T06:40:54.394Z,32.70
2018-11-07T06:41:28.778Z,32.77
2018-11-07T06:42:03.130Z,33.17
2018-11-07T06:42:37.585Z,34.10
2018-11-07T06:43:12.043Z,32.70
2018-11-07T06:43:46.472Z,35.00
2018-11-07T06:44:21.049Z,34.40
2018-11-07T06:44:55.540Z,32.90
2018-11-07T06:45:29.904Z,32.73
2018-11-07T06:46:04.286Z,31.90
2018-11-07T06:46:38.757Z,32.03
2018-11-07T06:47:13.353Z,29.73
2018-11-07T06:47:47.744Z,30.80
2018-11-07T06:48:22.132Z,30.63
2018-11-07T06:48:56.533Z,30.17
2018-11-07T06:49:30.940Z,31.70
2018-11-07T06:50:07.893Z,30.10
2018-11-07T06:50:42.319Z,30.27
2018-11-07T06:51:16.713Z,31.33
2018-11-07T06:51:51.097Z,30.20
2018-11-07T06:52:25.448Z,31.17
2018-11-07T06:52:59.810Z,30.67
2018-11-07T06:53:34.128Z,30.60
2018-11-07T06:54:08.502Z,31.33
2018-11-07T06:54:42.929Z,32.07
2018-11-07T06:55:17.895Z,32.53
2018-11-07T06:55:52.501Z,32.13
2018-11-07T06:56:27.247Z,31.53
2018-11-07T06:57:01.708Z,31.90
2018-11-07T06:57:36.060Z,32.03
2018-11-07T06:58:10.559Z,30.90
2018-11-07T06:58:45.116Z,32.03
2018-11-07T06:59:19.493Z,31.57
2018-11-07T06:59:53.836Z,30.37
2018-11-07T07:00:28.205Z,29.23
2018-11-07T07:01:02.601Z,29.60
2018-11-07T07:01:36.952Z,31.20
2018-11-07T07:02:11.531Z,29.43
2018-11-07T07:02:47.226Z,28.90
2018-11-07T07:03:21.563Z,29.97
2018-11-07T07:03:55.909Z,30.37
2018-11-07T07:04:30.256Z,30.50
2018-11-07T07:05:05.510Z,30.63
2018-11-07T07:05:40.036Z,28.97
2018-11-07T07:06:14.741Z,29.53
2018-11-07T07:06:49.208Z,28.67
2018-11-07T07:07:23.669Z,27.80
2018-11-07T07:07:58.029Z,29.63
2018-11-07T07:08:32.381Z,29.07
2018-11-07T07:09:08.661Z,28.20
2018-11-07T07:09:43.123Z,32.97
2018-11-07T07:10:18.215Z,31.30
2018-11-07T07:10:52.569Z,29.47
2018-11-07T07:11:26.994Z,28.50
2018-11-07T07:12:01.329Z,28.07
2018-11-07T07:12:35.799Z,22.80
2018-11-07T07:13:10.262Z,24.37
2018-11-07T07:13:44.855Z,22.30
2018-11-07T07:14:19.364Z,23.57
2018-11-07T07:14:53.709Z,21.50
2018-11-07T07:15:28.080Z,23.00
2018-11-07T07:16:02.454Z,22.00
2018-11-07T07:16:36.810Z,21.87
2018-11-07T07:17:11.447Z,21.87
2018-11-07T07:17:46.302Z,20.63
2018-11-07T07:18:20.759Z,20.57
2018-11-07T07:18:55.090Z,20.37
2018-11-07T07:19:29.439Z,20.17
2018-11-07T07:20:03.864Z,20.23
2018-11-07T07:20:38.225Z,19.80
2018-11-07T07:21:13.045Z,20.03
2018-11-07T07:21:47.475Z,21.03
2018-11-07T07:22:21.816Z,20.83
2018-11-07T07:22:56.170Z,20.93
2018-11-07T07:23:30.490Z,20.13
2018-11-07T07:24:05.249Z,19.27
2018-11-07T07:24:39.621Z,19.90